sensor_id;sensor_type;location;lat;lon;timestamp;P1;durP1;ratioP1;P2;durP2;ratioP2
6093;SDS011;19964;42.060;24.700;2022-10-30T00:01:44;4.30;;;3.20;;
6093;SDS011;19964;42.060;24.700;2022-10-30T00:04:10;3.40;;;3.10;;
6093;SDS011;19964;42.060;24.700;2022-10-30T00:06:37;3.13;;;2.93;;
6093;SDS011;19964;42.060;24.700;2022-10-30T00:09:04;3.10;;;2.83;;
6093;SDS011;19964;42.060;24.700;2022-10-30T00:11:31;3.33;;;3.00;;
6093;SDS011;19964;42.060;24.700;2022-10-30T00:13:59;2.90;;;2.70;;
6093;SDS011;19964;42.060;24.700;2022-10-30T00:16:25;3.60;;;3.30;;
6093;SDS011;19964;42.060;24.700;2022-10-30T00:18:53;4.17;;;3.40;;
6093;SDS011;19964;42.060;24.700;2022-10-30T00:21:19;3.10;;;2.90;;
6093;SDS011;19964;42.060;24.700;2022-10-30T00:23:46;3.67;;;3.17;;
6093;SDS011;19964;42.060;24.700;2022-10-30T00:26:15;3.80;;;2.90;;
6093;SDS011;19964;42.060;24.700;2022-10-30T00:28:42;3.53;;;3.20;;
6093;SDS011;19964;42.060;24.700;2022-10-30T00:31:10;4.43;;;2.90;;
6093;SDS011;19964;42.060;24.700;2022-10-30T00:33:37;3.53;;;3.00;;
6093;SDS011;19964;42.060;24.700;2022-10-30T00:36:04;3.23;;;3.03;;
6093;SDS011;19964;42.060;24.700;2022-10-30T00:38:31;3.20;;;3.00;;
6093;SDS011;19964;42.060;24.700;2022-10-30T00:40:58;3.63;;;3.40;;
6093;SDS011;19964;42.060;24.700;2022-10-30T00:43:26;3.83;;;3.03;;
6093;SDS011;19964;42.060;24.700;2022-10-30T00:45:54;3.57;;;3.37;;
6093;SDS011;19964;42.060;24.700;2022-10-30T00:48:27;3.27;;;2.97;;
6093;SDS011;19964;42.060;24.700;2022-10-30T00:50:54;3.30;;;3.10;;
6093;SDS011;19964;42.060;24.700;2022-10-30T00:53:24;3.63;;;3.30;;
6093;SDS011;19964;42.060;24.700;2022-10-30T00:55:52;3.63;;;3.33;;
6093;SDS011;19964;42.060;24.700;2022-10-30T00:58:23;3.20;;;3.00;;
6093;SDS011;19964;42.060;24.700;2022-10-30T01:00:54;5.80;;;3.13;;
6093;SDS011;19964;42.060;24.700;2022-10-30T01:03:23;3.83;;;3.23;;
6093;SDS011;19964;42.060;24.700;2022-10-30T01:05:54;3.43;;;3.20;;
6093;SDS011;19964;42.060;24.700;2022-10-30T01:08:24;2.90;;;2.70;;
6093;SDS011;19964;42.060;24.700;2022-10-30T01:10:51;3.40;;;3.20;;
6093;SDS011;19964;42.060;24.700;2022-10-30T01:13:18;3.13;;;2.93;;
6093;SDS011;19964;42.060;24.700;2022-10-30T01:15:49;3.13;;;2.93;;
6093;SDS011;19964;42.060;24.700;2022-10-30T01:18:30;3.43;;;3.07;;
6093;SDS011;19964;42.060;24.700;2022-10-30T01:21:09;3.33;;;3.13;;
6093;SDS011;19964;42.060;24.700;2022-10-30T01:23:47;3.27;;;3.07;;
6093;SDS011;19964;42.060;24.700;2022-10-30T01:26:29;3.30;;;3.10;;
6093;SDS011;19964;42.060;24.700;2022-10-30T01:29:08;4.20;;;2.90;;
6093;SDS011;19964;42.060;24.700;2022-10-30T01:31:50;3.40;;;3.10;;
6093;SDS011;19964;42.060;24.700;2022-10-30T01:34:36;3.40;;;3.20;;
6093;SDS011;19964;42.060;24.700;2022-10-30T01:37:12;3.10;;;2.90;;
6093;SDS011;19964;42.060;24.700;2022-10-30T01:39:41;3.80;;;3.47;;
6093;SDS011;19964;42.060;24.700;2022-10-30T01:42:08;4.07;;;3.60;;
6093;SDS011;19964;42.060;24.700;2022-10-30T01:44:36;3.90;;;3.60;;
6093;SDS011;19964;42.060;24.700;2022-10-30T01:47:07;4.90;;;3.40;;
6093;SDS011;19964;42.060;24.700;2022-10-30T01:49:50;3.90;;;3.50;;
6093;SDS011;19964;42.060;24.700;2022-10-30T01:52:35;3.80;;;3.50;;
6093;SDS011;19964;42.060;24.700;2022-10-30T01:55:14;4.17;;;3.10;;
6093;SDS011;19964;42.060;24.700;2022-10-30T01:57:50;4.73;;;3.43;;
6093;SDS011;19964;42.060;24.700;2022-10-30T02:00:23;3.40;;;3.20;;
6093;SDS011;19964;42.060;24.700;2022-10-30T02:02:52;4.10;;;3.50;;
6093;SDS011;19964;42.060;24.700;2022-10-30T02:05:20;3.80;;;3.33;;
6093;SDS011;19964;42.060;24.700;2022-10-30T02:07:56;4.10;;;3.70;;
6093;SDS011;19964;42.060;24.700;2022-10-30T02:10:23;3.97;;;3.67;;
6093;SDS011;19964;42.060;24.700;2022-10-30T02:12:50;3.70;;;3.40;;
6093;SDS011;19964;42.060;24.700;2022-10-30T02:15:17;3.70;;;3.40;;
6093;SDS011;19964;42.060;24.700;2022-10-30T02:17:45;3.30;;;3.10;;
6093;SDS011;19964;42.060;24.700;2022-10-30T02:20:16;3.57;;;3.37;;
6093;SDS011;19964;42.060;24.700;2022-10-30T02:22:43;4.00;;;3.63;;
6093;SDS011;19964;42.060;24.700;2022-10-30T02:25:10;4.10;;;3.80;;
6093;SDS011;19964;42.060;24.700;2022-10-30T02:27:37;5.03;;;3.70;;
6093;SDS011;19964;42.060;24.700;2022-10-30T02:30:04;7.03;;;4.00;;
6093;SDS011;19964;42.060;24.700;2022-10-30T02:32:31;4.53;;;3.87;;
6093;SDS011;19964;42.060;24.700;2022-10-30T02:34:58;4.30;;;3.67;;
6093;SDS011;19964;42.060;24.700;2022-10-30T02:37:26;3.67;;;3.37;;
6093;SDS011;19964;42.060;24.700;2022-10-30T02:39:53;4.00;;;3.70;;
6093;SDS011;19964;42.060;24.700;2022-10-30T02:42:20;3.57;;;3.27;;
6093;SDS011;19964;42.060;24.700;2022-10-30T02:44:47;3.77;;;3.57;;
6093;SDS011;19964;42.060;24.700;2022-10-30T02:47:14;4.00;;;3.60;;
6093;SDS011;19964;42.060;24.700;2022-10-30T02:49:41;5.00;;;3.43;;
6093;SDS011;19964;42.060;24.700;2022-10-30T02:52:08;3.70;;;3.40;;
6093;SDS011;19964;42.060;24.700;2022-10-30T02:54:36;4.00;;;3.70;;
6093;SDS011;19964;42.060;24.700;2022-10-30T02:57:03;3.73;;;3.37;;
6093;SDS011;19964;42.060;24.700;2022-10-30T02:59:30;3.90;;;3.60;;
6093;SDS011;19964;42.060;24.700;2022-10-30T03:01:56;4.87;;;4.20;;
6093;SDS011;19964;42.060;24.700;2022-10-30T03:04:23;4.17;;;3.87;;
6093;SDS011;19964;42.060;24.700;2022-10-30T03:06:50;4.23;;;3.93;;
6093;SDS011;19964;42.060;24.700;2022-10-30T03:09:17;4.63;;;4.23;;
6093;SDS011;19964;42.060;24.700;2022-10-30T03:11:45;4.40;;;4.00;;
6093;SDS011;19964;42.060;24.700;2022-10-30T03:14:12;4.93;;;4.10;;
6093;SDS011;19964;42.060;24.700;2022-10-30T03:16:39;4.33;;;3.93;;
6093;SDS011;19964;42.060;24.700;2022-10-30T03:19:05;5.53;;;3.93;;
6093;SDS011;19964;42.060;24.700;2022-10-30T03:21:32;4.70;;;4.30;;
6093;SDS011;19964;42.060;24.700;2022-10-30T03:23:59;4.50;;;4.10;;
6093;SDS011;19964;42.060;24.700;2022-10-30T03:26:26;4.63;;;4.33;;
6093;SDS011;19964;42.060;24.700;2022-10-30T03:28:54;4.67;;;4.37;;
6093;SDS011;19964;42.060;24.700;2022-10-30T03:31:21;4.27;;;3.90;;
6093;SDS011;19964;42.060;24.700;2022-10-30T03:33:48;4.50;;;4.10;;
6093;SDS011;19964;42.060;24.700;2022-10-30T03:36:14;4.37;;;4.00;;
6093;SDS011;19964;42.060;24.700;2022-10-30T03:38:41;5.53;;;4.60;;
6093;SDS011;19964;42.060;24.700;2022-10-30T03:41:08;4.77;;;4.47;;
6093;SDS011;19964;42.060;24.700;2022-10-30T03:43:35;5.17;;;4.20;;
6093;SDS011;19964;42.060;24.700;2022-10-30T03:46:04;5.67;;;5.17;;
6093;SDS011;19964;42.060;24.700;2022-10-30T03:48:30;4.80;;;4.40;;
6093;SDS011;19964;42.060;24.700;2022-10-30T03:50:58;4.30;;;4.03;;
6093;SDS011;19964;42.060;24.700;2022-10-30T03:53:25;4.53;;;4.13;;
6093;SDS011;19964;42.060;24.700;2022-10-30T03:55:56;4.83;;;4.40;;
6093;SDS011;19964;42.060;24.700;2022-10-30T03:58:23;5.03;;;4.63;;
6093;SDS011;19964;42.060;24.700;2022-10-30T04:00:50;5.10;;;4.70;;
6093;SDS011;19964;42.060;24.700;2022-10-30T04:03:18;5.27;;;4.77;;
6093;SDS011;19964;42.060;24.700;2022-10-30T04:05:45;5.23;;;4.70;;
6093;SDS011;19964;42.060;24.700;2022-10-30T04:08:15;5.27;;;4.77;;
6093;SDS011;19964;42.060;24.700;2022-10-30T04:10:43;5.50;;;5.00;;
6093;SDS011;19964;42.060;24.700;2022-10-30T04:13:11;5.93;;;5.03;;
6093;SDS011;19964;42.060;24.700;2022-10-30T04:15:39;5.73;;;4.97;;
6093;SDS011;19964;42.060;24.700;2022-10-30T04:18:07;5.13;;;4.57;;
6093;SDS011;19964;42.060;24.700;2022-10-30T04:20:38;7.63;;;5.10;;
6093;SDS011;19964;42.060;24.700;2022-10-30T04:23:05;6.63;;;5.03;;
6093;SDS011;19964;42.060;24.700;2022-10-30T04:25:33;6.17;;;4.97;;
6093;SDS011;19964;42.060;24.700;2022-10-30T04:28:01;7.80;;;4.40;;
6093;SDS011;19964;42.060;24.700;2022-10-30T04:30:28;8.20;;;5.80;;
6093;SDS011;19964;42.060;24.700;2022-10-30T04:32:59;5.87;;;4.80;;
6093;SDS011;19964;42.060;24.700;2022-10-30T04:35:28;5.20;;;4.70;;
6093;SDS011;19964;42.060;24.700;2022-10-30T04:37:59;4.97;;;4.57;;
6093;SDS011;19964;42.060;24.700;2022-10-30T04:40:27;5.23;;;4.40;;
6093;SDS011;19964;42.060;24.700;2022-10-30T04:42:56;5.73;;;4.40;;
6093;SDS011;19964;42.060;24.700;2022-10-30T04:45:23;4.93;;;4.53;;
6093;SDS011;19964;42.060;24.700;2022-10-30T04:47:50;5.00;;;4.60;;
6093;SDS011;19964;42.060;24.700;2022-10-30T04:50:17;4.70;;;4.30;;
6093;SDS011;19964;42.060;24.700;2022-10-30T04:52:44;4.97;;;4.53;;
6093;SDS011;19964;42.060;24.700;2022-10-30T04:55:12;4.47;;;3.97;;
6093;SDS011;19964;42.060;24.700;2022-10-30T04:57:39;4.67;;;4.27;;
6093;SDS011;19964;42.060;24.700;2022-10-30T05:00:06;4.20;;;3.90;;
6093;SDS011;19964;42.060;24.700;2022-10-30T05:02:34;5.73;;;4.10;;
6093;SDS011;19964;42.060;24.700;2022-10-30T05:05:01;4.27;;;3.80;;
6093;SDS011;19964;42.060;24.700;2022-10-30T05:07:29;4.43;;;4.03;;
6093;SDS011;19964;42.060;24.700;2022-10-30T05:09:55;4.07;;;3.67;;
6093;SDS011;19964;42.060;24.700;2022-10-30T05:12:24;3.90;;;3.50;;
6093;SDS011;19964;42.060;24.700;2022-10-30T05:14:50;3.43;;;3.20;;
6093;SDS011;19964;42.060;24.700;2022-10-30T05:17:17;3.77;;;3.47;;
6093;SDS011;19964;42.060;24.700;2022-10-30T05:19:44;3.47;;;3.27;;
6093;SDS011;19964;42.060;24.700;2022-10-30T05:22:11;4.03;;;3.33;;
6093;SDS011;19964;42.060;24.700;2022-10-30T05:24:37;3.30;;;3.00;;
6093;SDS011;19964;42.060;24.700;2022-10-30T05:27:04;3.73;;;3.43;;
6093;SDS011;19964;42.060;24.700;2022-10-30T05:29:33;3.53;;;3.27;;
6093;SDS011;19964;42.060;24.700;2022-10-30T05:31:59;3.03;;;2.83;;
6093;SDS011;19964;42.060;24.700;2022-10-30T05:34:26;4.47;;;3.00;;
6093;SDS011;19964;42.060;24.700;2022-10-30T05:36:53;3.60;;;3.30;;
6093;SDS011;19964;42.060;24.700;2022-10-30T05:39:20;3.30;;;3.00;;
6093;SDS011;19964;42.060;24.700;2022-10-30T05:41:46;2.70;;;2.50;;
6093;SDS011;19964;42.060;24.700;2022-10-30T05:44:13;3.33;;;2.70;;
6093;SDS011;19964;42.060;24.700;2022-10-30T05:46:41;2.43;;;2.33;;
6093;SDS011;19964;42.060;24.700;2022-10-30T05:49:08;2.27;;;2.17;;
6093;SDS011;19964;42.060;24.700;2022-10-30T05:51:35;4.33;;;2.50;;
6093;SDS011;19964;42.060;24.700;2022-10-30T05:54:02;2.47;;;2.37;;
6093;SDS011;19964;42.060;24.700;2022-10-30T05:56:29;3.63;;;2.90;;
6093;SDS011;19964;42.060;24.700;2022-10-30T05:58:56;3.83;;;3.30;;
6093;SDS011;19964;42.060;24.700;2022-10-30T06:01:23;4.93;;;4.03;;
6093;SDS011;19964;42.060;24.700;2022-10-30T06:03:51;3.80;;;3.50;;
6093;SDS011;19964;42.060;24.700;2022-10-30T06:06:18;4.70;;;4.30;;
6093;SDS011;19964;42.060;24.700;2022-10-30T06:08:44;4.87;;;3.53;;
6093;SDS011;19964;42.060;24.700;2022-10-30T06:11:11;3.67;;;3.30;;
6093;SDS011;19964;42.060;24.700;2022-10-30T06:13:38;4.00;;;2.60;;
6093;SDS011;19964;42.060;24.700;2022-10-30T06:16:05;3.40;;;2.50;;
6093;SDS011;19964;42.060;24.700;2022-10-30T06:18:32;2.53;;;2.33;;
6093;SDS011;19964;42.060;24.700;2022-10-30T06:21:00;2.30;;;2.20;;
6093;SDS011;19964;42.060;24.700;2022-10-30T06:23:27;2.53;;;2.33;;
6093;SDS011;19964;42.060;24.700;2022-10-30T06:25:53;2.57;;;2.37;;
6093;SDS011;19964;42.060;24.700;2022-10-30T06:28:20;2.50;;;2.30;;
6093;SDS011;19964;42.060;24.700;2022-10-30T06:30:47;2.23;;;2.13;;
6093;SDS011;19964;42.060;24.700;2022-10-30T06:33:14;5.50;;;2.20;;
6093;SDS011;19964;42.060;24.700;2022-10-30T06:35:41;2.57;;;2.37;;
6093;SDS011;19964;42.060;24.700;2022-10-30T06:38:09;2.13;;;2.03;;
6093;SDS011;19964;42.060;24.700;2022-10-30T06:40:36;2.90;;;2.17;;
6093;SDS011;19964;42.060;24.700;2022-10-30T06:43:03;2.97;;;2.20;;
6093;SDS011;19964;42.060;24.700;2022-10-30T06:45:30;2.47;;;2.27;;
6093;SDS011;19964;42.060;24.700;2022-10-30T06:47:58;2.40;;;2.20;;
6093;SDS011;19964;42.060;24.700;2022-10-30T06:50:25;2.20;;;2.10;;
6093;SDS011;19964;42.060;24.700;2022-10-30T06:52:52;4.87;;;3.40;;
6093;SDS011;19964;42.060;24.700;2022-10-30T06:55:21;5.43;;;3.23;;
6093;SDS011;19964;42.060;24.700;2022-10-30T06:57:52;5.18;;;4.75;;
6093;SDS011;19964;42.060;24.700;2022-10-30T07:00:19;4.25;;;3.85;;
6093;SDS011;19964;42.060;24.700;2022-10-30T07:02:53;4.70;;;4.22;;
6093;SDS011;19964;42.060;24.700;2022-10-30T07:05:26;4.70;;;3.63;;
6093;SDS011;19964;42.060;24.700;2022-10-30T07:07:54;3.72;;;3.30;;
6093;SDS011;19964;42.060;24.700;2022-10-30T07:10:23;4.85;;;3.50;;
6093;SDS011;19964;42.060;24.700;2022-10-30T07:12:51;4.03;;;3.72;;
6093;SDS011;19964;42.060;24.700;2022-10-30T07:15:18;3.67;;;3.40;;
6093;SDS011;19964;42.060;24.700;2022-10-30T07:17:52;4.28;;;3.70;;
6093;SDS011;19964;42.060;24.700;2022-10-30T07:20:20;4.60;;;4.20;;
6093;SDS011;19964;42.060;24.700;2022-10-30T07:22:47;7.23;;;4.50;;
6093;SDS011;19964;42.060;24.700;2022-10-30T07:25:14;4.30;;;3.87;;
6093;SDS011;19964;42.060;24.700;2022-10-30T07:27:43;3.63;;;3.43;;
6093;SDS011;19964;42.060;24.700;2022-10-30T07:30:10;4.30;;;3.90;;
6093;SDS011;19964;42.060;24.700;2022-10-30T07:32:38;7.47;;;3.87;;
6093;SDS011;19964;42.060;24.700;2022-10-30T07:35:06;4.87;;;3.90;;
6093;SDS011;19964;42.060;24.700;2022-10-30T07:37:34;4.80;;;4.00;;
6093;SDS011;19964;42.060;24.700;2022-10-30T07:40:00;5.30;;;3.90;;
6093;SDS011;19964;42.060;24.700;2022-10-30T07:42:27;6.50;;;4.50;;
6093;SDS011;19964;42.060;24.700;2022-10-30T07:44:55;5.00;;;4.47;;
6093;SDS011;19964;42.060;24.700;2022-10-30T07:47:22;6.27;;;4.40;;
6093;SDS011;19964;42.060;24.700;2022-10-30T07:49:49;4.50;;;3.93;;
6093;SDS011;19964;42.060;24.700;2022-10-30T07:52:16;4.90;;;4.40;;
6093;SDS011;19964;42.060;24.700;2022-10-30T07:54:43;10.43;;;4.67;;
6093;SDS011;19964;42.060;24.700;2022-10-30T07:57:10;8.20;;;4.57;;
6093;SDS011;19964;42.060;24.700;2022-10-30T07:59:36;6.43;;;4.43;;
6093;SDS011;19964;42.060;24.700;2022-10-30T08:02:04;7.10;;;4.90;;
6093;SDS011;19964;42.060;24.700;2022-10-30T08:04:31;5.03;;;4.47;;
6093;SDS011;19964;42.060;24.700;2022-10-30T08:06:58;6.20;;;4.97;;
6093;SDS011;19964;42.060;24.700;2022-10-30T08:09:25;8.33;;;4.97;;
6093;SDS011;19964;42.060;24.700;2022-10-30T08:11:52;8.00;;;4.60;;
6093;SDS011;19964;42.060;24.700;2022-10-30T08:14:18;5.10;;;4.60;;
6093;SDS011;19964;42.060;24.700;2022-10-30T08:16:46;6.97;;;4.60;;
6093;SDS011;19964;42.060;24.700;2022-10-30T08:19:14;6.40;;;4.93;;
6093;SDS011;19964;42.060;24.700;2022-10-30T08:21:41;7.53;;;4.93;;
6093;SDS011;19964;42.060;24.700;2022-10-30T08:24:07;5.20;;;4.70;;
6093;SDS011;19964;42.060;24.700;2022-10-30T08:26:34;5.30;;;4.80;;
6093;SDS011;19964;42.060;24.700;2022-10-30T08:29:01;6.90;;;5.17;;
6093;SDS011;19964;42.060;24.700;2022-10-30T08:31:28;8.53;;;5.00;;
6093;SDS011;19964;42.060;24.700;2022-10-30T08:33:56;9.97;;;5.07;;
6093;SDS011;19964;42.060;24.700;2022-10-30T08:36:24;6.97;;;4.63;;
6093;SDS011;19964;42.060;24.700;2022-10-30T08:38:50;10.37;;;4.93;;
6093;SDS011;19964;42.060;24.700;2022-10-30T08:41:17;5.37;;;4.50;;
6093;SDS011;19964;42.060;24.700;2022-10-30T08:43:44;7.32;;;4.53;;
6093;SDS011;19964;42.060;24.700;2022-10-30T08:46:11;8.73;;;4.72;;
6093;SDS011;19964;42.060;24.700;2022-10-30T08:48:37;11.90;;;5.43;;
6093;SDS011;19964;42.060;24.700;2022-10-30T08:51:04;5.78;;;4.70;;
6093;SDS011;19964;42.060;24.700;2022-10-30T08:53:33;5.22;;;4.80;;
6093;SDS011;19964;42.060;24.700;2022-10-30T08:56:00;6.40;;;5.80;;
6093;SDS011;19964;42.060;24.700;2022-10-30T08:58:26;10.05;;;6.20;;
6093;SDS011;19964;42.060;24.700;2022-10-30T09:00:53;10.00;;;6.60;;
6093;SDS011;19964;42.060;24.700;2022-10-30T09:03:20;6.82;;;5.07;;
6093;SDS011;19964;42.060;24.700;2022-10-30T09:05:47;8.60;;;5.28;;
6093;SDS011;19964;42.060;24.700;2022-10-30T09:08:14;7.13;;;4.60;;
6093;SDS011;19964;42.060;24.700;2022-10-30T09:10:42;10.68;;;4.80;;
6093;SDS011;19964;42.060;24.700;2022-10-30T09:13:09;6.75;;;5.22;;
6093;SDS011;19964;42.060;24.700;2022-10-30T09:15:36;5.82;;;4.70;;
6093;SDS011;19964;42.060;24.700;2022-10-30T09:18:03;5.25;;;4.07;;
6093;SDS011;19964;42.060;24.700;2022-10-30T09:20:30;4.90;;;4.18;;
6093;SDS011;19964;42.060;24.700;2022-10-30T09:22:57;6.15;;;4.63;;
6093;SDS011;19964;42.060;24.700;2022-10-30T09:25:23;5.63;;;3.72;;
6093;SDS011;19964;42.060;24.700;2022-10-30T09:27:51;6.57;;;4.07;;
6093;SDS011;19964;42.060;24.700;2022-10-30T09:30:18;5.65;;;3.88;;
6093;SDS011;19964;42.060;24.700;2022-10-30T09:32:52;7.90;;;3.70;;
6093;SDS011;19964;42.060;24.700;2022-10-30T09:35:19;4.38;;;3.33;;
6093;SDS011;19964;42.060;24.700;2022-10-30T09:37:46;6.60;;;3.53;;
6093;SDS011;19964;42.060;24.700;2022-10-30T09:40:16;5.88;;;3.53;;
6093;SDS011;19964;42.060;24.700;2022-10-30T09:42:48;7.15;;;3.70;;
6093;SDS011;19964;42.060;24.700;2022-10-30T09:45:28;6.20;;;3.08;;
6093;SDS011;19964;42.060;24.700;2022-10-30T09:51:33;4.22;;;3.17;;
6093;SDS011;19964;42.060;24.700;2022-10-30T09:54:14;6.47;;;3.42;;
6093;SDS011;19964;42.060;24.700;2022-10-30T09:56:50;6.05;;;3.30;;
6093;SDS011;19964;42.060;24.700;2022-10-30T09:59:27;7.20;;;3.50;;
6093;SDS011;19964;42.060;24.700;2022-10-30T10:02:10;11.90;;;4.20;;
6093;SDS011;19964;42.060;24.700;2022-10-30T10:04:48;8.85;;;4.05;;
6093;SDS011;19964;42.060;24.700;2022-10-30T10:07:20;5.88;;;3.85;;
6093;SDS011;19964;42.060;24.700;2022-10-30T10:09:50;6.22;;;3.20;;
6093;SDS011;19964;42.060;24.700;2022-10-30T10:12:24;8.48;;;3.58;;
6093;SDS011;19964;42.060;24.700;2022-10-30T10:14:55;5.75;;;3.85;;
6093;SDS011;19964;42.060;24.700;2022-10-30T10:17:30;4.78;;;3.50;;
6093;SDS011;19964;42.060;24.700;2022-10-30T10:20:02;5.40;;;3.22;;
6093;SDS011;19964;42.060;24.700;2022-10-30T10:22:31;4.15;;;3.00;;
6093;SDS011;19964;42.060;24.700;2022-10-30T10:25:05;3.58;;;3.35;;
6093;SDS011;19964;42.060;24.700;2022-10-30T10:27:40;5.72;;;3.03;;
6093;SDS011;19964;42.060;24.700;2022-10-30T10:30:18;4.13;;;3.72;;
6093;SDS011;19964;42.060;24.700;2022-10-30T10:35:52;4.70;;;3.08;;
6093;SDS011;19964;42.060;24.700;2022-10-30T10:38:31;4.03;;;3.33;;
6093;SDS011;19964;42.060;24.700;2022-10-30T10:41:20;5.90;;;2.97;;
6093;SDS011;19964;42.060;24.700;2022-10-30T10:44:01;3.47;;;2.67;;
6093;SDS011;19964;42.060;24.700;2022-10-30T10:46:46;3.83;;;2.83;;
6093;SDS011;19964;42.060;24.700;2022-10-30T10:49:30;4.07;;;3.13;;
6093;SDS011;19964;42.060;24.700;2022-10-30T10:52:07;4.93;;;2.92;;
6093;SDS011;19964;42.060;24.700;2022-10-30T10:54:40;3.10;;;2.85;;
6093;SDS011;19964;42.060;24.700;2022-10-30T10:57:11;3.05;;;2.75;;
6093;SDS011;19964;42.060;24.700;2022-10-30T10:59:42;3.38;;;2.50;;
6093;SDS011;19964;42.060;24.700;2022-10-30T11:02:25;4.68;;;2.63;;
6093;SDS011;19964;42.060;24.700;2022-10-30T11:04:58;3.00;;;2.70;;
6093;SDS011;19964;42.060;24.700;2022-10-30T11:07:32;2.75;;;2.50;;
6093;SDS011;19964;42.060;24.700;2022-10-30T11:10:05;2.95;;;2.70;;
6093;SDS011;19964;42.060;24.700;2022-10-30T11:12:38;8.20;;;2.60;;
6093;SDS011;19964;42.060;24.700;2022-10-30T11:15:08;6.47;;;2.72;;
6093;SDS011;19964;42.060;24.700;2022-10-30T11:17:58;4.88;;;2.90;;
6093;SDS011;19964;42.060;24.700;2022-10-30T11:20:28;7.65;;;3.10;;
6093;SDS011;19964;42.060;24.700;2022-10-30T11:23:03;3.08;;;2.65;;
6093;SDS011;19964;42.060;24.700;2022-10-30T11:25:49;3.33;;;2.80;;
6093;SDS011;19964;42.060;24.700;2022-10-30T11:28:23;4.15;;;3.05;;
6093;SDS011;19964;42.060;24.700;2022-10-30T11:31:16;6.25;;;2.67;;
6093;SDS011;19964;42.060;24.700;2022-10-30T11:33:45;3.97;;;3.00;;
6093;SDS011;19964;42.060;24.700;2022-10-30T11:36:13;7.10;;;2.90;;
6093;SDS011;19964;42.060;24.700;2022-10-30T11:38:42;7.25;;;3.00;;
6093;SDS011;19964;42.060;24.700;2022-10-30T11:41:08;3.08;;;2.80;;
6093;SDS011;19964;42.060;24.700;2022-10-30T11:43:36;3.10;;;2.90;;
6093;SDS011;19964;42.060;24.700;2022-10-30T11:46:05;6.85;;;3.00;;
6093;SDS011;19964;42.060;24.700;2022-10-30T11:48:36;3.60;;;3.28;;
6093;SDS011;19964;42.060;24.700;2022-10-30T11:51:04;3.95;;;2.80;;
6093;SDS011;19964;42.060;24.700;2022-10-30T11:53:31;4.88;;;2.80;;
6093;SDS011;19964;42.060;24.700;2022-10-30T11:56:09;3.55;;;3.10;;
6093;SDS011;19964;42.060;24.700;2022-10-30T11:58:44;4.43;;;2.55;;
6093;SDS011;19964;42.060;24.700;2022-10-30T12:01:18;3.85;;;2.80;;
6093;SDS011;19964;42.060;24.700;2022-10-30T12:03:48;3.38;;;2.60;;
6093;SDS011;19964;42.060;24.700;2022-10-30T12:06:17;5.85;;;2.70;;
6093;SDS011;19964;42.060;24.700;2022-10-30T12:08:57;4.15;;;2.78;;
6093;SDS011;19964;42.060;24.700;2022-10-30T12:11:30;3.85;;;2.72;;
6093;SDS011;19964;42.060;24.700;2022-10-30T12:13:59;4.00;;;2.47;;
6093;SDS011;19964;42.060;24.700;2022-10-30T12:16:27;2.70;;;2.50;;
6093;SDS011;19964;42.060;24.700;2022-10-30T12:19:01;3.72;;;2.97;;
6093;SDS011;19964;42.060;24.700;2022-10-30T12:21:34;4.43;;;2.20;;
6093;SDS011;19964;42.060;24.700;2022-10-30T12:24:05;7.07;;;3.25;;
6093;SDS011;19964;42.060;24.700;2022-10-30T12:26:44;7.88;;;2.92;;
6093;SDS011;19964;42.060;24.700;2022-10-30T12:29:14;2.55;;;2.35;;
6093;SDS011;19964;42.060;24.700;2022-10-30T12:31:43;4.82;;;2.60;;
6093;SDS011;19964;42.060;24.700;2022-10-30T12:34:17;7.80;;;3.13;;
6093;SDS011;19964;42.060;24.700;2022-10-30T12:36:54;5.25;;;2.80;;
6093;SDS011;19964;42.060;24.700;2022-10-30T12:39:26;3.83;;;3.45;;
6093;SDS011;19964;42.060;24.700;2022-10-30T12:42:00;4.88;;;3.20;;
6093;SDS011;19964;42.060;24.700;2022-10-30T12:44:31;3.47;;;3.13;;
6093;SDS011;19964;42.060;24.700;2022-10-30T12:47:02;3.90;;;3.20;;
6093;SDS011;19964;42.060;24.700;2022-10-30T12:49:36;5.35;;;4.80;;
6093;SDS011;19964;42.060;24.700;2022-10-30T12:52:08;6.68;;;4.70;;
6093;SDS011;19964;42.060;24.700;2022-10-30T12:54:41;7.70;;;3.38;;
6093;SDS011;19964;42.060;24.700;2022-10-30T12:57:15;7.15;;;2.55;;
6093;SDS011;19964;42.060;24.700;2022-10-30T12:59:53;6.57;;;3.03;;
6093;SDS011;19964;42.060;24.700;2022-10-30T13:02:32;5.25;;;2.78;;
6093;SDS011;19964;42.060;24.700;2022-10-30T13:05:14;3.25;;;2.78;;
6093;SDS011;19964;42.060;24.700;2022-10-30T13:07:50;3.00;;;2.40;;
6093;SDS011;19964;42.060;24.700;2022-10-30T13:10:27;4.78;;;3.20;;
6093;SDS011;19964;42.060;24.700;2022-10-30T13:13:02;5.07;;;2.75;;
6093;SDS011;19964;42.060;24.700;2022-10-30T13:15:40;3.85;;;2.67;;
6093;SDS011;19964;42.060;24.700;2022-10-30T13:18:12;5.30;;;2.65;;
6093;SDS011;19964;42.060;24.700;2022-10-30T13:20:43;5.03;;;2.75;;
6093;SDS011;19964;42.060;24.700;2022-10-30T13:23:22;3.13;;;2.80;;
6093;SDS011;19964;42.060;24.700;2022-10-30T13:26:00;4.47;;;3.03;;
6093;SDS011;19964;42.060;24.700;2022-10-30T13:28:37;5.72;;;2.50;;
6093;SDS011;19964;42.060;24.700;2022-10-30T13:31:13;6.75;;;3.05;;
6093;SDS011;19964;42.060;24.700;2022-10-30T13:33:49;3.42;;;2.60;;
6093;SDS011;19964;42.060;24.700;2022-10-30T13:36:27;5.10;;;3.63;;
6093;SDS011;19964;42.060;24.700;2022-10-30T13:39:02;4.70;;;3.22;;
6093;SDS011;19964;42.060;24.700;2022-10-30T13:41:42;3.85;;;2.90;;
6093;SDS011;19964;42.060;24.700;2022-10-30T13:44:26;4.28;;;3.00;;
6093;SDS011;19964;42.060;24.700;2022-10-30T13:47:03;3.55;;;2.70;;
6093;SDS011;19964;42.060;24.700;2022-10-30T13:49:44;3.65;;;2.95;;
6093;SDS011;19964;42.060;24.700;2022-10-30T13:52:20;3.30;;;2.92;;
6093;SDS011;19964;42.060;24.700;2022-10-30T13:54:50;3.72;;;2.92;;
6093;SDS011;19964;42.060;24.700;2022-10-30T13:57:25;4.00;;;2.85;;
6093;SDS011;19964;42.060;24.700;2022-10-30T14:00:03;9.57;;;3.17;;
6093;SDS011;19964;42.060;24.700;2022-10-30T14:02:40;3.33;;;2.60;;
6093;SDS011;19964;42.060;24.700;2022-10-30T14:05:25;5.38;;;2.92;;
6093;SDS011;19964;42.060;24.700;2022-10-30T14:08:02;6.85;;;2.75;;
6093;SDS011;19964;42.060;24.700;2022-10-30T14:10:44;3.80;;;2.47;;
6093;SDS011;19964;42.060;24.700;2022-10-30T14:13:14;2.85;;;2.65;;
6093;SDS011;19964;42.060;24.700;2022-10-30T14:15:47;6.40;;;2.47;;
6093;SDS011;19964;42.060;24.700;2022-10-30T14:18:29;5.18;;;2.70;;
6093;SDS011;19964;42.060;24.700;2022-10-30T14:20:58;4.72;;;2.55;;
6093;SDS011;19964;42.060;24.700;2022-10-30T14:23:45;5.13;;;2.80;;
6093;SDS011;19964;42.060;24.700;2022-10-30T14:26:18;3.92;;;2.40;;
6093;SDS011;19964;42.060;24.700;2022-10-30T14:28:46;3.05;;;2.55;;
6093;SDS011;19964;42.060;24.700;2022-10-30T14:31:16;2.50;;;2.30;;
6093;SDS011;19964;42.060;24.700;2022-10-30T14:33:46;3.70;;;2.60;;
6093;SDS011;19964;42.060;24.700;2022-10-30T14:36:15;4.93;;;2.87;;
6093;SDS011;19964;42.060;24.700;2022-10-30T14:38:54;3.77;;;2.83;;
6093;SDS011;19964;42.060;24.700;2022-10-30T14:41:26;5.60;;;2.63;;
6093;SDS011;19964;42.060;24.700;2022-10-30T14:44:02;3.50;;;2.63;;
6093;SDS011;19964;42.060;24.700;2022-10-30T14:46:50;3.20;;;2.30;;
6093;SDS011;19964;42.060;24.700;2022-10-30T14:49:33;2.70;;;2.40;;
6093;SDS011;19964;42.060;24.700;2022-10-30T14:52:13;4.73;;;2.30;;
6093;SDS011;19964;42.060;24.700;2022-10-30T14:54:45;3.10;;;2.20;;
6093;SDS011;19964;42.060;24.700;2022-10-30T14:57:22;2.70;;;2.47;;
6093;SDS011;19964;42.060;24.700;2022-10-30T15:02:57;5.60;;;2.13;;
6093;SDS011;19964;42.060;24.700;2022-10-30T15:05:38;4.50;;;2.23;;
6093;SDS011;19964;42.060;24.700;2022-10-30T15:08:12;3.13;;;2.20;;
6093;SDS011;19964;42.060;24.700;2022-10-30T15:11:11;3.57;;;2.00;;
6093;SDS011;19964;42.060;24.700;2022-10-30T15:13:47;3.03;;;1.87;;
6093;SDS011;19964;42.060;24.700;2022-10-30T15:16:16;1.60;;;1.50;;
6093;SDS011;19964;42.060;24.700;2022-10-30T15:18:46;1.60;;;1.50;;